Time;durP1;ratioP1;P1;durP2;ratioP2;P2;SDS_P1;SDS_P2;PMS_P1;PMS_P2;Temp;Humidity;BMP_temperature;BMP_pressure;BME280_temperature;BME280_humidity;BME280_pressure;Samples;Min_cycle;Max_cycle;Signal;HPM_P1;HPM_P2
2022/03/24 00:00:55;;;;;;;19.20;15.23;;;4.50;99.90;;;;;;5049996;28;20484;-66
2022/03/24 00:03:21;;;;;;;24.90;15.57;;;4.50;99.90;;;;;;5050579;28;20832;-66
2022/03/24 00:05:48;;;;;;;21.93;16.87;;;4.50;99.90;;;;;;5048952;28;20591;-67
2022/03/24 00:08:15;;;;;;;21.17;16.90;;;4.40;99.90;;;;;;5049974;28;20452;-66
2022/03/24 00:10:44;;;;;;;18.60;15.40;;;4.40;99.90;;;;;;5049343;28;20447;-67
2022/03/24 00:13:11;;;;;;;19.20;15.43;;;4.30;99.90;;;;;;5049972;28;20456;-66
2022/03/24 00:15:38;;;;;;;19.70;14.77;;;4.40;99.90;;;;;;5048749;28;20478;-66
2022/03/24 00:18:05;;;;;;;20.60;14.93;;;4.30;99.90;;;;;;5050161;28;20949;-67
2022/03/24 00:20:32;;;;;;;21.23;14.93;;;4.30;99.90;;;;;;5049848;28;20955;-66
2022/03/24 00:22:59;;;;;;;21.40;15.40;;;4.20;99.90;;;;;;5049773;28;20455;-67
2022/03/24 00:25:26;;;;;;;21.60;15.40;;;4.10;99.90;;;;;;5048522;28;20463;-66
2022/03/24 00:27:54;;;;;;;19.67;14.80;;;4.10;99.90;;;;;;5049748;28;20468;-66
2022/03/24 00:30:21;;;;;;;21.30;16.27;;;4.00;99.90;;;;;;5049653;28;20996;-67
2022/03/24 00:32:48;;;;;;;22.93;14.97;;;3.80;99.90;;;;;;5049555;28;20981;-67
2022/03/24 00:35:15;;;;;;;22.37;16.43;;;3.80;99.90;;;;;;5048825;28;20447;-65
2022/03/24 00:37:42;;;;;;;20.37;15.30;;;3.70;99.90;;;;;;5049767;28;20459;-65
2022/03/24 00:40:10;;;;;;;18.37;15.27;;;3.60;99.90;;;;;;5049665;28;20495;-66
2022/03/24 00:42:37;;;;;;;18.63;14.97;;;3.70;99.90;;;;;;5049734;28;20575;-65
2022/03/24 00:45:10;;;;;;;22.17;16.37;;;3.80;99.90;;;;;;5048649;28;20796;-65
2022/03/24 00:47:37;;;;;;;17.37;15.33;;;3.80;99.90;;;;;;5049483;28;20450;-65
2022/03/24 00:50:04;;;;;;;17.83;15.23;;;3.70;99.90;;;;;;5049884;28;20466;-66
2022/03/24 00:52:31;;;;;;;20.13;15.47;;;3.70;99.90;;;;;;5049538;28;20570;-66
2022/03/24 00:54:58;;;;;;;18.70;15.33;;;3.80;99.90;;;;;;5048246;28;20867;-65
2022/03/24 00:57:25;;;;;;;20.10;15.13;;;3.80;99.90;;;;;;5049646;28;20444;-66
2022/03/24 00:59:52;;;;;;;19.17;15.97;;;3.90;99.90;;;;;;5049735;28;20462;-66
2022/03/24 01:02:20;;;;;;;18.90;14.40;;;3.80;99.90;;;;;;5049523;28;21035;-66
2022/03/24 01:04:47;;;;;;;18.60;13.90;;;3.70;99.90;;;;;;5048418;28;20447;-66
2022/03/24 01:07:14;;;;;;;21.33;16.93;;;3.70;99.90;;;;;;5049337;28;20523;-65
2022/03/24 01:09:41;;;;;;;17.70;15.80;;;3.70;99.90;;;;;;5049681;28;20458;-65
2022/03/24 01:12:09;;;;;;;20.63;15.30;;;3.70;99.90;;;;;;5049508;28;20460;-67
2022/03/24 01:14:37;;;;;;;18.90;14.63;;;3.70;99.90;;;;;;5048639;28;20807;-66
2022/03/24 01:17:05;;;;;;;17.07;13.50;;;3.70;99.90;;;;;;5049639;28;20455;-65
2022/03/24 01:19:33;;;;;;;22.10;15.17;;;3.70;99.90;;;;;;5049908;28;20462;-65
2022/03/24 01:22:01;;;;;;;20.40;14.17;;;3.70;99.90;;;;;;5053044;28;20488;-65
2022/03/24 01:24:29;;;;;;;21.00;15.50;;;3.60;99.90;;;;;;5052709;28;20794;-65
2022/03/24 01:26:55;;;;;;;22.20;16.23;;;3.60;99.90;;;;;;5053580;28;21072;-65
2022/03/24 01:29:23;;;;;;;22.87;16.50;;;3.50;99.90;;;;;;5052591;28;20459;-66
2022/03/24 01:31:51;;;;;;;23.53;16.20;;;3.40;99.90;;;;;;5053201;28;20471;-65
2022/03/24 01:34:18;;;;;;;21.90;15.53;;;3.40;99.90;;;;;;5051998;28;20476;-66
2022/03/24 01:36:46;;;;;;;21.43;16.37;;;3.20;99.90;;;;;;5052850;28;20459;-66
2022/03/24 01:39:13;;;;;;;26.30;18.90;;;3.10;99.90;;;;;;5052883;28;20466;-66
2022/03/24 01:41:40;;;;;;;24.87;16.93;;;3.10;99.90;;;;;;5053001;28;20488;-65
2022/03/24 01:44:18;;;;;;;22.20;16.10;;;3.10;99.90;;;;;;5052643;28;20455;-65
2022/03/24 01:47:00;;;;;;;23.80;16.73;;;3.20;99.90;;;;;;5052590;28;20444;-65
2022/03/24 01:49:28;;;;;;;23.50;16.40;;;3.20;99.90;;;;;;5052475;28;20452;-65
2022/03/24 01:51:57;;;;;;;24.37;15.43;;;3.20;99.90;;;;;;5052583;28;20463;-66
2022/03/24 01:54:25;;;;;;;23.90;17.57;;;3.10;99.90;;;;;;5051404;28;20454;-65
2022/03/24 01:56:52;;;;;;;21.53;15.83;;;3.20;99.90;;;;;;5052473;28;20539;-66
2022/03/24 01:59:19;;;;;;;21.73;14.97;;;3.20;99.90;;;;;;5052085;28;20452;-65
2022/03/24 02:01:48;;;;;;;18.03;15.33;;;3.30;99.90;;;;;;5052222;28;20496;-65
2022/03/24 02:04:16;;;;;;;18.37;15.70;;;3.30;99.90;;;;;;5051556;28;20460;-65
2022/03/24 02:06:43;;;;;;;18.63;14.77;;;3.30;99.90;;;;;;5051800;28;20909;-66
2022/03/24 02:09:12;;;;;;;19.23;14.83;;;3.20;99.90;;;;;;5052365;28;20535;-65
2022/03/24 02:11:39;;;;;;;19.67;16.37;;;3.20;99.90;;;;;;5052093;28;20547;-65
2022/03/24 02:14:07;;;;;;;32.40;18.17;;;3.10;99.90;;;;;;5051445;28;20444;-65
2022/03/24 02:16:35;;;;;;;19.27;13.90;;;3.00;99.90;;;;;;5051855;28;20452;-65
2022/03/24 02:19:10;;;;;;;19.90;16.27;;;2.90;99.90;;;;;;5052367;28;20456;-65
2022/03/24 02:21:38;;;;;;;19.43;15.30;;;3.00;99.90;;;;;;5051891;28;20483;-66
2022/03/24 02:24:08;;;;;;;20.83;15.67;;;3.00;99.90;;;;;;5051292;28;21019;-64
2022/03/24 02:26:37;;;;;;;21.10;15.57;;;3.00;99.90;;;;;;5051175;28;20452;-66
2022/03/24 02:29:06;;;;;;;24.23;15.77;;;2.90;99.90;;;;;;5051971;28;20528;-65
2022/03/24 02:31:33;;;;;;;18.37;14.67;;;2.80;99.90;;;;;;5051295;28;20476;-65
2022/03/24 02:36:43;;;;;;;19.90;14.53;;;2.70;99.90;;;;;;5050588;28;20428;-65
2022/03/24 02:39:12;;;;;;;17.33;15.20;;;2.60;99.90;;;;;;5051517;28;20455;-65
2022/03/24 02:41:46;;;;;;;19.97;14.70;;;2.60;99.90;;;;;;5051620;28;20488;-66
2022/03/24 02:44:14;;;;;;;22.70;16.37;;;2.60;99.90;;;;;;5050938;28;20491;-65
2022/03/24 02:46:43;;;;;;;22.73;16.47;;;2.60;99.90;;;;;;5051435;28;20535;-65
2022/03/24 02:49:10;;;;;;;22.20;17.30;;;2.70;99.90;;;;;;5051604;28;20950;-65
2022/03/24 02:51:37;;;;;;;20.40;15.80;;;2.70;99.90;;;;;;5051318;28;20468;-65
2022/03/24 02:54:04;;;;;;;24.53;17.03;;;2.60;99.90;;;;;;5050602;28;20445;-65
2022/03/24 02:56:33;;;;;;;20.33;17.50;;;2.60;99.90;;;;;;5051066;28;20456;-66
2022/03/24 02:58:59;;;;;;;21.77;17.00;;;2.50;99.90;;;;;;5051284;28;20452;-65
2022/03/24 03:01:26;;;;;;;20.97;16.30;;;2.40;99.90;;;;;;5050886;28;20484;-65
2022/03/24 03:03:54;;;;;;;22.83;17.87;;;2.40;99.90;;;;;;5051146;28;20460;-66
2022/03/24 03:06:21;;;;;;;22.93;17.57;;;2.40;99.90;;;;;;5050227;28;20545;-66
2022/03/24 03:08:49;;;;;;;22.57;15.90;;;2.40;99.90;;;;;;5051362;28;20467;-65
2022/03/24 03:11:16;;;;;;;34.50;22.63;;;2.40;99.90;;;;;;5050954;28;20977;-65
2022/03/24 03:13:45;;;;;;;25.67;17.80;;;2.40;99.90;;;;;;5051107;28;20447;-65
2022/03/24 03:16:13;;;;;;;23.27;17.40;;;2.40;99.90;;;;;;5050815;28;20838;-65
2022/03/24 03:18:41;;;;;;;19.33;15.60;;;2.50;99.90;;;;;;5050610;28;20452;-65
2022/03/24 03:21:09;;;;;;;19.20;15.40;;;2.40;99.90;;;;;;5050786;28;20488;-66
2022/03/24 03:23:38;;;;;;;21.97;16.23;;;2.30;99.90;;;;;;5050837;28;20514;-65
2022/03/24 03:26:05;;;;;;;25.70;16.13;;;2.20;99.90;;;;;;5049378;28;20544;-65
2022/03/24 03:28:32;;;;;;;29.00;19.97;;;2.10;99.90;;;;;;5050658;28;20455;-65
2022/03/24 03:31:01;;;;;;;22.57;16.10;;;2.10;99.90;;;;;;5050681;28;20548;-65
2022/03/24 03:33:29;;;;;;;19.40;16.30;;;2.20;99.90;;;;;;5050790;28;20452;-65
2022/03/24 03:35:57;;;;;;;20.47;15.80;;;2.20;99.90;;;;;;5049252;28;20795;-65
2022/03/24 03:38:24;;;;;;;24.40;16.07;;;2.20;99.90;;;;;;5050333;28;20456;-66
2022/03/24 03:40:52;;;;;;;19.03;15.73;;;2.20;99.90;;;;;;5050176;28;20472;-66
2022/03/24 03:43:19;;;;;;;20.13;15.50;;;2.20;99.90;;;;;;5050285;28;20452;-66
2022/03/24 03:45:46;;;;;;;21.53;15.40;;;2.20;99.90;;;;;;5048990;28;20946;-65
2022/03/24 03:48:15;;;;;;;19.50;14.80;;;2.20;99.90;;;;;;5050508;28;20483;-65
2022/03/24 03:50:42;;;;;;;22.27;15.87;;;2.20;99.90;;;;;;5050159;28;20530;-65
2022/03/24 03:53:09;;;;;;;21.70;15.90;;;2.20;99.90;;;;;;5050105;28;20502;-66
2022/03/24 03:55:36;;;;;;;21.33;16.23;;;2.20;99.90;;;;;;5049112;28;20444;-65
2022/03/24 03:58:04;;;;;;;18.87;16.10;;;2.20;99.90;;;;;;5049964;28;20444;-65
2022/03/24 04:03:17;;;;;;;22.70;16.27;;;2.10;99.90;;;;;;5050176;28;20420;-66
2022/03/24 04:05:44;;;;;;;18.60;15.00;;;2.00;99.90;;;;;;5048915;28;21118;-65
2022/03/24 04:08:11;;;;;;;19.70;16.77;;;1.90;99.90;;;;;;5049944;28;20440;-65
2022/03/24 04:10:38;;;;;;;18.80;15.70;;;2.00;99.90;;;;;;5049856;28;20448;-65
2022/03/24 04:13:05;;;;;;;17.60;13.57;;;1.90;99.90;;;;;;5050022;28;20443;-65
2022/03/24 04:15:33;;;;;;;20.10;14.90;;;1.90;99.90;;;;;;5048843;28;20447;-65
2022/03/24 04:18:00;;;;;;;20.10;16.17;;;1.90;99.90;;;;;;5049826;28;20485;-65
2022/03/24 04:20:28;;;;;;;22.63;15.10;;;1.90;99.90;;;;;;5049575;28;20984;-65
2022/03/24 04:23:00;;;;;;;19.60;13.83;;;2.00;99.90;;;;;;5049726;28;20997;-65
2022/03/24 04:25:27;;;;;;;19.53;15.30;;;2.10;99.90;;;;;;5048268;28;20486;-65
2022/03/24 04:27:54;;;;;;;21.27;14.93;;;2.00;99.90;;;;;;5049797;28;20531;-65
2022/03/24 04:30:21;;;;;;;22.43;15.43;;;2.10;99.90;;;;;;5049628;28;20455;-65
2022/03/24 04:32:48;;;;;;;21.97;14.47;;;2.10;99.90;;;;;;5049658;28;20488;-65
2022/03/24 04:35:16;;;;;;;21.93;16.33;;;2.10;99.90;;;;;;5048543;28;20439;-65
2022/03/24 04:37:45;;;;;;;22.77;14.90;;;2.10;99.90;;;;;;5049774;28;20444;-65
2022/03/24 04:40:15;;;;;;;17.13;14.80;;;2.10;99.90;;;;;;5049922;28;20447;-66
2022/03/24 04:42:43;;;;;;;17.40;13.93;;;2.10;99.90;;;;;;5049943;28;20491;-65
2022/03/24 04:45:10;;;;;;;20.67;17.00;;;2.00;99.90;;;;;;5049080;28;20453;-66
2022/03/24 04:47:38;;;;;;;22.90;15.70;;;2.00;99.90;;;;;;5050006;28;20444;-65
2022/03/24 04:50:06;;;;;;;19.00;15.70;;;1.90;99.90;;;;;;5048977;28;20450;-65
2022/03/24 04:52:33;;;;;;;21.73;15.83;;;1.80;99.90;;;;;;5050173;28;20474;-66
2022/03/24 04:55:01;;;;;;;20.77;14.80;;;1.80;99.90;;;;;;5049206;28;20452;-66
2022/03/24 04:57:29;;;;;;;18.47;14.30;;;1.80;99.90;;;;;;5054365;28;20440;-65
2022/03/24 04:59:56;;;;;;;19.30;14.53;;;1.80;99.90;;;;;;5053807;28;20455;-65
2022/03/24 05:02:24;;;;;;;18.57;14.60;;;1.80;99.90;;;;;;5053865;28;20484;-66
2022/03/24 05:04:52;;;;;;;22.50;14.73;;;1.80;99.90;;;;;;5052450;28;20448;-66
2022/03/24 05:07:19;;;;;;;27.70;15.60;;;1.80;99.90;;;;;;5053647;28;20475;-66
2022/03/24 05:09:46;;;;;;;23.33;16.90;;;1.70;99.90;;;;;;5053731;28;20827;-66
2022/03/24 05:12:14;;;;;;;18.67;15.17;;;1.70;99.90;;;;;;5053537;28;20472;-65
2022/03/24 05:14:42;;;;;;;18.80;14.03;;;1.70;99.90;;;;;;5052473;28;20450;-65
2022/03/24 05:17:09;;;;;;;20.17;14.70;;;1.70;99.90;;;;;;5053463;28;20447;-65
2022/03/24 05:19:36;;;;;;;20.30;15.30;;;1.60;99.90;;;;;;5053679;28;20444;-65
2022/03/24 05:22:03;;;;;;;20.00;15.20;;;1.60;99.90;;;;;;5053192;28;20499;-65
2022/03/24 05:24:30;;;;;;;25.20;16.63;;;1.60;99.90;;;;;;5052298;28;20528;-64
2022/03/24 05:26:57;;;;;;;26.20;16.37;;;1.60;99.90;;;;;;5053060;28;20469;-66
2022/03/24 05:29:25;;;;;;;26.30;16.93;;;1.60;99.90;;;;;;5052812;28;21024;-65
2022/03/24 05:31:52;;;;;;;24.00;17.90;;;1.70;99.90;;;;;;5052972;28;20498;-65
2022/03/24 05:34:19;;;;;;;21.23;16.10;;;1.60;99.90;;;;;;5052261;28;20460;-66
2022/03/24 05:36:46;;;;;;;23.80;17.17;;;1.70;99.90;;;;;;5047414;28;20585;-65
2022/03/24 05:39:13;;;;;;;25.07;17.93;;;1.80;99.90;;;;;;5047010;28;20451;-64
2022/03/24 05:41:41;;;;;;;26.93;16.83;;;1.90;99.90;;;;;;5059242;28;20933;-65
2022/03/24 05:44:08;;;;;;;22.13;16.73;;;1.90;99.90;;;;;;5044275;28;20448;-66
2022/03/24 05:46:38;;;;;;;27.60;17.10;;;2.00;99.90;;;;;;5052589;28;20450;-66
2022/03/24 05:49:07;;;;;;;20.43;16.80;;;2.10;99.90;;;;;;5052369;28;20454;-66
2022/03/24 05:51:34;;;;;;;27.40;17.50;;;2.20;99.90;;;;;;5052198;28;20575;-66
2022/03/24 05:54:03;;;;;;;22.03;16.03;;;2.20;99.90;;;;;;5040389;28;21041;-68
2022/03/24 05:56:30;;;;;;;23.47;16.17;;;2.10;99.90;;;;;;5038034;28;22118;-67
2022/03/24 05:58:57;;;;;;;21.90;16.57;;;2.10;99.90;;;;;;5044257;28;20498;-67
2022/03/24 06:01:24;;;;;;;21.47;16.40;;;2.20;99.90;;;;;;5042267;28;20460;-68
2022/03/24 06:03:53;;;;;;;23.43;15.67;;;2.20;99.90;;;;;;5046387;28;20473;-69
2022/03/24 06:06:22;;;;;;;24.60;16.17;;;2.20;99.90;;;;;;5043167;28;20463;-68
2022/03/24 06:08:52;;;;;;;22.93;16.60;;;2.30;99.90;;;;;;5047113;28;20449;-67
2022/03/24 06:11:20;;;;;;;24.00;15.53;;;2.30;99.90;;;;;;5045790;28;20483;-67
2022/03/24 06:13:47;;;;;;;24.60;17.17;;;2.50;99.90;;;;;;5051576;28;21304;-67
2022/03/24 06:16:14;;;;;;;24.90;17.30;;;2.50;99.90;;;;;;5046736;28;20550;-67
2022/03/24 06:18:42;;;;;;;21.00;17.13;;;2.60;99.90;;;;;;5049410;28;20506;-67
2022/03/24 06:21:10;;;;;;;23.30;18.20;;;2.80;99.90;;;;;;5048453;28;20475;-67
2022/03/24 06:23:37;;;;;;;21.47;17.00;;;2.80;99.90;;;;;;5048195;28;20580;-68
2022/03/24 06:26:04;;;;;;;21.87;16.67;;;2.90;99.90;;;;;;5046145;28;20464;-68
2022/03/24 06:28:31;;;;;;;20.13;15.43;;;2.90;99.90;;;;;;5044064;28;20454;-68
2022/03/24 06:31:00;;;;;;;19.00;15.17;;;2.90;99.90;;;;;;5048533;28;20464;-68
2022/03/24 06:33:27;;;;;;;18.77;15.53;;;3.00;99.90;;;;;;5049805;28;20450;-67
2022/03/24 06:35:53;;;;;;;19.33;16.23;;;3.10;99.90;;;;;;5048550;28;20444;-67
2022/03/24 06:38:22;;;;;;;20.70;15.43;;;3.30;99.90;;;;;;5049468;28;20538;-67
2022/03/24 06:40:48;;;;;;;20.93;16.13;;;3.40;99.90;;;;;;5051281;28;20448;-67
2022/03/24 06:43:15;;;;;;;23.07;16.53;;;3.50;99.90;;;;;;5051586;28;20490;-68
2022/03/24 06:45:42;;;;;;;22.50;18.83;;;3.60;99.90;;;;;;5050244;28;20847;-68
2022/03/24 06:48:09;;;;;;;22.83;16.90;;;3.80;99.90;;;;;;5044190;28;20511;-67
2022/03/24 06:50:36;;;;;;;18.97;14.93;;;3.90;99.90;;;;;;5051404;28;20455;-68
2022/03/24 06:53:03;;;;;;;22.70;16.57;;;4.00;99.90;;;;;;5051657;28;20452;-68
2022/03/24 06:55:32;;;;;;;25.33;17.53;;;4.00;99.90;;;;;;5050417;28;20448;-69
2022/03/24 06:57:59;;;;;;;21.77;18.20;;;4.10;99.90;;;;;;5049037;28;20538;-68
2022/03/24 07:00:26;;;;;;;22.00;17.63;;;4.20;99.90;;;;;;5046184;28;20440;-68
2022/03/24 07:02:52;;;;;;;25.97;18.40;;;4.30;99.90;;;;;;5050771;28;20480;-68
2022/03/24 07:05:19;;;;;;;22.63;16.10;;;4.40;99.90;;;;;;5049756;28;20451;-68
2022/03/24 07:07:46;;;;;;;21.67;17.10;;;4.60;99.90;;;;;;5050817;28;20478;-68
2022/03/24 07:10:13;;;;;;;20.67;17.47;;;4.70;99.90;;;;;;5051045;28;20472;-68
2022/03/24 07:12:41;;;;;;;25.10;17.17;;;4.80;99.90;;;;;;5051141;28;20472;-69
2022/03/24 07:15:10;;;;;;;21.47;17.50;;;5.00;99.90;;;;;;5050360;28;20450;-66
2022/03/24 07:17:37;;;;;;;23.60;17.83;;;5.10;99.90;;;;;;5051487;28;20941;-66
2022/03/24 07:20:05;;;;;;;25.27;18.70;;;5.20;99.90;;;;;;5051041;28;20467;-66
2022/03/24 07:22:33;;;;;;;24.83;17.83;;;5.40;99.90;;;;;;5050815;28;20715;-65
2022/03/24 07:24:59;;;;;;;25.03;18.00;;;5.50;99.90;;;;;;5049386;28;20916;-66
2022/03/24 07:27:27;;;;;;;21.67;17.50;;;5.70;99.90;;;;;;5050659;28;20833;-65
2022/03/24 07:29:55;;;;;;;22.80;18.33;;;5.90;99.90;;;;;;5050469;28;20448;-66
2022/03/24 07:32:22;;;;;;;25.27;19.33;;;6.00;99.90;;;;;;5050315;28;20471;-65
2022/03/24 07:34:48;;;;;;;24.73;18.20;;;6.40;99.90;;;;;;5049381;28;20470;-65
2022/03/24 07:37:16;;;;;;;28.03;19.90;;;6.70;99.90;;;;;;5050374;28;20939;-65
2022/03/24 07:39:43;;;;;;;22.13;17.47;;;6.90;99.90;;;;;;5050356;28;20833;-65
2022/03/24 07:42:10;;;;;;;22.60;18.60;;;7.10;99.90;;;;;;5050120;28;20468;-66
2022/03/24 07:44:37;;;;;;;23.37;19.40;;;7.20;99.90;;;;;;5049485;28;20451;-65
2022/03/24 07:47:05;;;;;;;22.77;18.20;;;7.30;99.90;;;;;;5049726;28;20467;-66
2022/03/24 07:49:32;;;;;;;23.33;18.90;;;7.40;99.90;;;;;;5050195;28;20490;-66
2022/03/24 07:51:59;;;;;;;23.17;18.53;;;7.50;99.90;;;;;;5050041;28;20463;-66
2022/03/24 07:54:45;;;;;;;23.93;19.03;;;7.60;99.90;;;;;;5049697;28;20444;-66
2022/03/24 07:57:12;;;;;;;21.77;18.30;;;7.70;99.90;;;;;;5049962;28;20439;-66
2022/03/24 07:59:38;;;;;;;22.30;18.90;;;7.80;99.90;;;;;;5049911;28;20454;-66
2022/03/24 08:02:08;;;;;;;24.73;19.00;;;7.90;99.90;;;;;;5050012;28;20512;-66
2022/03/24 08:04:35;;;;;;;24.27;19.10;;;8.00;99.90;;;;;;5049115;28;20816;-66
2022/03/24 08:07:02;;;;;;;25.80;18.50;;;8.10;99.90;;;;;;5049446;28;20463;-66
2022/03/24 08:09:32;;;;;;;28.73;18.70;;;8.30;99.90;;;;;;5049809;28;20460;-66
2022/03/24 08:11:59;;;;;;;24.70;19.20;;;8.40;99.90;;;;;;5049569;28;20978;-66
2022/03/24 08:14:26;;;;;;;28.30;20.20;;;8.50;99.90;;;;;;5049169;28;20805;-66
2022/03/24 08:16:53;;;;;;;26.10;19.20;;;8.60;99.90;;;;;;5049558;28;20832;-66
2022/03/24 08:19:21;;;;;;;30.33;21.17;;;8.70;99.90;;;;;;5049824;28;20464;-65
2022/03/24 08:21:48;;;;;;;30.47;21.17;;;8.90;99.90;;;;;;5049530;28;20846;-66
2022/03/24 08:24:15;;;;;;;28.60;21.70;;;9.00;99.90;;;;;;5048816;28;20488;-66
2022/03/24 08:26:42;;;;;;;24.40;20.93;;;9.20;99.90;;;;;;5049161;28;21100;-66
2022/03/24 08:29:09;;;;;;;22.90;18.20;;;9.30;99.90;;;;;;5049776;28;20866;-66
2022/03/24 08:31:36;;;;;;;27.50;20.53;;;9.40;99.90;;;;;;5049092;28;20478;-66
2022/03/24 08:34:03;;;;;;;27.13;21.37;;;9.60;99.90;;;;;;5049390;28;20483;-64
2022/03/24 08:36:31;;;;;;;23.17;18.80;;;9.80;99.90;;;;;;5049637;28;20436;-66
2022/03/24 08:38:59;;;;;;;25.13;18.67;;;10.00;99.20;;;;;;5049867;28;20439;-66
2022/03/24 08:41:26;;;;;;;25.23;20.13;;;10.20;98.30;;;;;;5045467;28;20514;-66
2022/03/24 08:43:53;;;;;;;25.30;20.13;;;10.40;97.70;;;;;;5044563;28;20476;-66
2022/03/24 08:46:24;;;;;;;26.40;20.27;;;10.60;97.90;;;;;;5044031;28;21026;-67
2022/03/24 08:48:52;;;;;;;23.03;19.83;;;10.80;96.30;;;;;;5049804;28;20977;-66
2022/03/24 08:51:22;;;;;;;22.00;19.67;;;11.00;97.60;;;;;;5049606;28;20534;-66
2022/03/24 08:53:53;;;;;;;25.37;19.30;;;11.30;96.30;;;;;;5049546;28;20447;-66
2022/03/24 08:56:22;;;;;;;23.20;18.77;;;11.40;95.90;;;;;;5048356;28;20941;-67
2022/03/24 08:58:50;;;;;;;28.77;21.83;;;11.70;95.80;;;;;;5049362;28;20514;-67
2022/03/24 09:01:21;;;;;;;26.80;22.73;;;11.90;94.50;;;;;;5048884;28;20446;-67
2022/03/24 09:03:51;;;;;;;26.43;22.70;;;12.00;94.10;;;;;;5049281;28;20218;-67
2022/03/24 09:06:18;;;;;;;26.23;20.60;;;12.20;93.60;;;;;;5048073;28;20456;-66
2022/03/24 09:08:45;;;;;;;29.17;22.10;;;12.40;94.70;;;;;;5049649;28;20502;-67
2022/03/24 09:11:15;;;;;;;26.30;21.40;;;12.50;93.60;;;;;;5049244;28;20575;-66
2022/03/24 09:13:42;;;;;;;29.30;22.73;;;12.90;93.70;;;;;;5049438;28;20539;-66
2022/03/24 09:16:11;;;;;;;25.90;21.23;;;13.20;91.50;;;;;;5048299;28;20497;-67
2022/03/24 09:18:38;;;;;;;25.50;21.73;;;13.60;91.60;;;;;;5049288;28;20456;-67
2022/03/24 09:21:05;;;;;;;26.60;23.00;;;14.20;90.30;;;;;;5049173;28;20977;-67
2022/03/24 09:23:32;;;;;;;26.37;23.33;;;14.60;88.20;;;;;;5049352;28;21341;-66
2022/03/24 09:25:59;;;;;;;28.37;23.00;;;15.20;89.10;;;;;;5047868;28;20547;-67
2022/03/24 09:28:27;;;;;;;26.43;22.90;;;15.70;83.00;;;;;;5049264;28;20455;-67
2022/03/24 09:30:55;;;;;;;28.47;23.57;;;16.00;82.20;;;;;;5048967;28;20467;-67
2022/03/24 09:33:23;;;;;;;24.93;22.43;;;16.40;80.80;;;;;;5048967;28;20538;-66
2022/03/24 09:35:51;;;;;;;25.10;22.40;;;16.70;79.50;;;;;;5047936;28;20444;-67
2022/03/24 09:38:18;;;;;;;29.10;24.60;;;17.10;78.60;;;;;;5048968;28;20461;-67
2022/03/24 09:40:46;;;;;;;26.90;24.03;;;17.20;72.70;;;;;;5048961;28;20542;-67
2022/03/24 09:43:14;;;;;;;27.23;23.50;;;17.00;72.80;;;;;;5052375;28;20483;-66
2022/03/24 09:45:43;;;;;;;27.53;24.60;;;16.60;73.40;;;;;;5051298;28;20891;-67
2022/03/24 09:48:12;;;;;;;29.77;25.73;;;16.70;72.70;;;;;;5052803;28;20492;-66
2022/03/24 09:50:39;;;;;;;28.87;25.97;;;16.90;73.40;;;;;;5052393;28;20544;-67
2022/03/24 09:53:08;;;;;;;27.67;24.70;;;16.80;70.60;;;;;;5052593;28;20476;-67
2022/03/24 09:55:36;;;;;;;28.50;24.67;;;17.00;72.80;;;;;;5051262;28;20452;-66
2022/03/24 09:58:07;;;;;;;30.10;25.27;;;17.30;71.80;;;;;;5052402;28;20506;-67
2022/03/24 10:00:35;;;;;;;30.77;27.50;;;17.70;71.50;;;;;;5052766;28;20887;-66
2022/03/24 10:03:15;;;;;;;27.93;25.13;;;18.20;68.90;;;;;;5052197;28;20484;-66
2022/03/24 10:05:57;;;;;;;29.30;26.03;;;18.40;62.90;;;;;;5051184;28;20904;-67
2022/03/24 10:08:23;;;;;;;25.23;22.63;;;18.50;62.30;;;;;;5052287;28;20539;-67
2022/03/24 10:10:51;;;;;;;27.93;24.87;;;18.70;62.40;;;;;;5051876;28;20443;-67
2022/03/24 10:13:25;;;;;;;28.47;25.40;;;18.40;60.40;;;;;;5052538;28;21028;-67
2022/03/24 10:15:52;;;;;;;28.10;25.20;;;18.40;59.20;;;;;;5051213;28;20452;-67
2022/03/24 10:18:21;;;;;;;28.63;24.27;;;18.50;59.30;;;;;;5052341;28;20503;-66
2022/03/24 10:20:47;;;;;;;27.10;24.03;;;18.30;59.40;;;;;;5052252;28;20444;-66
2022/03/24 10:23:14;;;;;;;25.93;23.23;;;18.20;57.80;;;;;;5052136;28;21079;-66
2022/03/24 10:25:44;;;;;;;27.90;23.87;;;18.30;56.90;;;;;;5052128;28;20527;-66
2022/03/24 10:28:12;;;;;;;28.83;24.70;;;18.60;57.30;;;;;;5052428;28;20480;-66
2022/03/24 10:30:47;;;;;;;28.40;23.20;;;19.00;56.10;;;;;;5052393;28;20449;-66
2022/03/24 10:33:28;;;;;;;34.57;26.90;;;19.20;59.20;;;;;;5052431;28;20532;-66
2022/03/24 10:36:07;;;;;;;29.70;24.90;;;19.40;57.90;;;;;;5050790;28;20829;-67
2022/03/24 10:38:34;;;;;;;30.67;26.30;;;19.80;58.10;;;;;;5051907;28;20447;-67
2022/03/24 10:41:13;;;;;;;30.73;24.13;;;20.30;57.50;;;;;;5051441;28;20464;-67
2022/03/24 10:43:40;;;;;;;27.23;24.00;;;20.90;56.30;;;;;;5051626;28;20487;-67
2022/03/24 10:46:13;;;;;;;28.37;25.37;;;21.50;56.80;;;;;;5050287;28;20452;-67
2022/03/24 10:48:41;;;;;;;30.53;24.30;;;21.90;53.20;;;;;;5051448;28;20444;-67
2022/03/24 10:51:08;;;;;;;29.37;26.03;;;21.70;51.40;;;;;;5051749;28;20553;-66
2022/03/24 10:53:40;;;;;;;28.90;25.53;;;21.40;51.70;;;;;;5050801;28;20440;-67
2022/03/24 10:56:12;;;;;;;25.60;21.30;;;21.00;51.10;;;;;;5050269;28;20448;-67
2022/03/24 10:58:43;;;;;;;27.47;21.53;;;21.50;50.80;;;;;;5051236;28;20448;-67
2022/03/24 11:01:12;;;;;;;25.47;22.77;;;21.70;45.60;;;;;;5051299;28;20471;-66
2022/03/24 11:03:39;;;;;;;24.37;21.77;;;21.30;45.50;;;;;;5051003;28;20477;-66
2022/03/24 11:06:12;;;;;;;25.10;22.43;;;21.40;48.20;;;;;;5050122;28;20510;-66
2022/03/24 11:08:40;;;;;;;26.10;23.30;;;21.80;47.20;;;;;;5050956;28;20452;-66
2022/03/24 11:11:11;;;;;;;26.30;21.30;;;22.00;47.10;;;;;;5051172;28;20507;-66
2022/03/24 11:13:44;;;;;;;24.20;21.60;;;22.30;44.20;;;;;;5050968;28;20447;-65
2022/03/24 11:16:12;;;;;;;24.23;21.63;;;22.60;43.70;;;;;;5049616;28;20451;-65
2022/03/24 11:18:40;;;;;;;30.33;23.43;;;23.10;44.20;;;;;;5050728;28;21166;-66
2022/03/24 11:21:14;;;;;;;28.53;22.60;;;23.70;43.50;;;;;;5050810;28;20470;-65
2022/03/24 11:23:41;;;;;;;25.50;22.90;;;23.60;42.90;;;;;;5050272;28;21094;-66
2022/03/24 11:26:11;;;;;;;23.77;21.27;;;24.00;41.80;;;;;;5049402;28;20468;-65
2022/03/24 11:28:39;;;;;;;24.80;22.30;;;23.90;39.50;;;;;;5050613;28;20456;-65
2022/03/24 11:31:09;;;;;;;24.60;22.00;;;23.40;41.10;;;;;;5050476;28;20472;-66
2022/03/24 11:33:42;;;;;;;23.47;20.50;;;24.00;40.30;;;;;;5050471;28;20827;-64
2022/03/24 11:36:11;;;;;;;21.17;18.97;;;24.50;39.40;;;;;;5049101;28;20443;-65
2022/03/24 11:38:40;;;;;;;22.10;19.90;;;25.20;38.60;;;;;;5050988;28;20450;-65
2022/03/24 11:41:12;;;;;;;23.13;20.23;;;25.40;37.90;;;;;;5050323;28;20580;-65
2022/03/24 11:43:44;;;;;;;21.73;18.07;;;25.00;36.50;;;;;;5050241;28;20486;-65
2022/03/24 11:46:13;;;;;;;18.37;16.57;;;24.60;36.10;;;;;;5048986;28;20964;-65
2022/03/24 11:48:41;;;;;;;16.70;15.07;;;23.80;35.20;;;;;;5049861;28;20443;-65
2022/03/24 11:51:20;;;;;;;19.37;16.90;;;23.60;37.10;;;;;;5049819;28;20472;-65
2022/03/24 11:54:01;;;;;;;17.00;15.30;;;23.90;33.90;;;;;;5050131;28;20566;-65
2022/03/24 11:56:28;;;;;;;17.73;15.50;;;24.70;33.80;;;;;;5049416;28;20493;-65
2022/03/24 11:59:21;;;;;;;17.33;15.63;;;24.00;32.80;;;;;;5049890;28;20478;-65
2022/03/24 12:02:09;;;;;;;17.97;16.10;;;24.50;36.10;;;;;;5049743;28;20468;-65
2022/03/24 12:04:50;;;;;;;19.20;17.30;;;25.30;33.70;;;;;;5048548;28;20639;-66
2022/03/24 12:07:20;;;;;;;27.67;18.10;;;24.60;33.20;;;;;;5049631;28;20458;-64
2022/03/24 12:09:58;;;;;;;18.53;16.63;;;24.00;33.80;;;;;;5049844;28;20439;-65
2022/03/24 12:12:25;;;;;;;17.90;16.20;;;24.90;37.60;;;;;;5049558;28;20555;-65
2022/03/24 12:14:54;;;;;;;19.93;17.83;;;26.00;34.60;;;;;;5049233;28;20473;-64
2022/03/24 12:17:30;;;;;;;17.83;16.13;;;26.20;34.70;;;;;;5049620;28;20917;-65
2022/03/24 12:19:58;;;;;;;16.87;15.07;;;25.70;31.60;;;;;;5049880;28;20505;-65
2022/03/24 12:22:43;;;;;;;18.07;16.17;;;25.50;34.60;;;;;;5050097;28;20464;-65
2022/03/24 12:25:33;;;;;;;19.20;15.93;;;26.30;35.40;;;;;;5048904;28;20479;-66
2022/03/24 12:28:11;;;;;;;17.37;15.50;;;27.50;33.00;;;;;;5049565;28;20470;-67
2022/03/24 12:30:53;;;;;;;18.70;16.90;;;27.90;31.70;;;;;;5049720;28;20455;-65
2022/03/24 12:33:49;;;;;;;18.87;17.07;;;28.50;30.70;;;;;;5046746;28;20448;-65
2022/03/24 12:36:40;;;;;;;18.10;16.30;;;28.20;30.30;;;;;;5051980;28;20451;-66
2022/03/24 12:39:09;;;;;;;18.67;16.87;;;27.50;30.80;;;;;;5044230;28;21331;-64
2022/03/24 12:41:36;;;;;;;22.37;16.53;;;26.80;31.60;;;;;;5046216;28;20468;-65
2022/03/24 12:44:06;;;;;;;20.27;18.27;;;26.30;31.00;;;;;;5048317;28;20484;-62
2022/03/24 12:46:39;;;;;;;26.97;16.60;;;26.60;31.10;;;;;;5049017;28;20432;-65